sensor_id;sensor_type;location;lat;lon;timestamp;pressure;altitude;pressure_sealevel;temperature;humidity
62712;BME280;48772;55.586;37.730;2023-04-04T00:02:05;99130.44;;;9.48;100.00
62712;BME280;48772;55.586;37.730;2023-04-04T00:04:35;99142.56;;;9.52;100.00
62712;BME280;48772;55.586;37.730;2023-04-04T00:07:01;99147.16;;;9.50;100.00
62712;BME280;48772;55.586;37.730;2023-04-04T00:09:26;99114.94;;;9.33;100.00
62712;BME280;48772;55.586;37.730;2023-04-04T00:11:53;99153.44;;;9.49;100.00
62712;BME280;48772;55.586;37.730;2023-04-04T00:14:19;99131.50;;;9.36;100.00
62712;BME280;48772;55.586;37.730;2023-04-04T00:16:44;99133.69;;;9.31;100.00
62712;BME280;48772;55.586;37.730;2023-04-04T00:19:10;99151.28;;;9.43;100.00
62712;BME280;48772;55.586;37.730;2023-04-04T00:21:43;99161.56;;;9.48;100.00
62712;BME280;48772;55.586;37.730;2023-04-04T00:24:10;99161.94;;;9.43;100.00
62712;BME280;48772;55.586;37.730;2023-04-04T00:26:35;99091.72;;;9.03;100.00
62712;BME280;48772;55.586;37.730;2023-04-04T00:29:01;99156.16;;;9.38;100.00
62712;BME280;48772;55.586;37.730;2023-04-04T00:31:28;99162.59;;;9.36;100.00
62712;BME280;48772;55.586;37.730;2023-04-04T00:33:53;99156.41;;;9.35;100.00
62712;BME280;48772;55.586;37.730;2023-04-04T00:36:19;99150.50;;;9.32;100.00
62712;BME280;48772;55.586;37.730;2023-04-04T00:38:45;99143.16;;;9.24;100.00
62712;BME280;48772;55.586;37.730;2023-04-04T00:41:11;99151.59;;;9.29;100.00
62712;BME280;48772;55.586;37.730;2023-04-04T00:43:37;99161.63;;;9.37;100.00
62712;BME280;48772;55.586;37.730;2023-04-04T00:46:03;99128.69;;;9.17;100.00
62712;BME280;48772;55.586;37.730;2023-04-04T00:48:29;99159.78;;;9.37;100.00
62712;BME280;48772;55.586;37.730;2023-04-04T00:50:55;99131.34;;;9.17;100.00
62712;BME280;48772;55.586;37.730;2023-04-04T00:53:21;99165.09;;;9.37;100.00
62712;BME280;48772;55.586;37.730;2023-04-04T00:55:48;99147.38;;;9.27;100.00
62712;BME280;48772;55.586;37.730;2023-04-04T00:58:14;99143.16;;;9.24;100.00
62712;BME280;48772;55.586;37.730;2023-04-04T01:00:40;99141.97;;;9.17;100.00
62712;BME280;48772;55.586;37.730;2023-04-04T01:03:08;99150.69;;;9.19;100.00
62712;BME280;48772;55.586;37.730;2023-04-04T01:05:37;99141.13;;;9.17;100.00
62712;BME280;48772;55.586;37.730;2023-04-04T01:08:03;99158.13;;;9.25;100.00
62712;BME280;48772;55.586;37.730;2023-04-04T01:10:29;99145.22;;;9.21;100.00
62712;BME280;48772;55.586;37.730;2023-04-04T01:12:56;99135.47;;;9.10;100.00
62712;BME280;48772;55.586;37.730;2023-04-04T01:15:22;99144.88;;;9.14;100.00
62712;BME280;48772;55.586;37.730;2023-04-04T01:17:49;99151.31;;;9.12;100.00
62712;BME280;48772;55.586;37.730;2023-04-04T01:20:24;99140.47;;;9.04;100.00
62712;BME280;48772;55.586;37.730;2023-04-04T01:22:53;99132.59;;;9.02;100.00
62712;BME280;48772;55.586;37.730;2023-04-04T01:25:27;99112.84;;;8.84;100.00
62712;BME280;48772;55.586;37.730;2023-04-04T01:27:57;99117.66;;;8.90;100.00
62712;BME280;48772;55.586;37.730;2023-04-04T01:30:26;99131.41;;;8.95;100.00
62712;BME280;48772;55.586;37.730;2023-04-04T01:33:17;99137.47;;;8.97;100.00
62712;BME280;48772;55.586;37.730;2023-04-04T01:38:58;99145.59;;;8.85;100.00
62712;BME280;48772;55.586;37.730;2023-04-04T01:41:32;99121.81;;;8.72;100.00
62712;BME280;48772;55.586;37.730;2023-04-04T01:43:59;99138.44;;;8.85;100.00
62712;BME280;48772;55.586;37.730;2023-04-04T01:46:26;99134.97;;;8.85;100.00
62712;BME280;48772;55.586;37.730;2023-04-04T01:48:52;99131.22;;;8.76;100.00
62712;BME280;48772;55.586;37.730;2023-04-04T01:51:23;99138.97;;;8.79;100.00
62712;BME280;48772;55.586;37.730;2023-04-04T01:53:50;99134.59;;;8.78;100.00
62712;BME280;48772;55.586;37.730;2023-04-04T01:56:15;99116.97;;;8.66;100.00
62712;BME280;48772;55.586;37.730;2023-04-04T01:58:41;99124.72;;;8.69;100.00
62712;BME280;48772;55.586;37.730;2023-04-04T02:01:07;99141.13;;;8.74;100.00
62712;BME280;48772;55.586;37.730;2023-04-04T02:03:34;99133.50;;;8.70;100.00
62712;BME280;48772;55.586;37.730;2023-04-04T02:06:00;99150.53;;;8.78;100.00
62712;BME280;48772;55.586;37.730;2023-04-04T02:08:26;99146.31;;;8.76;100.00
62712;BME280;48772;55.586;37.730;2023-04-04T02:10:58;99135.34;;;8.69;100.00
62712;BME280;48772;55.586;37.730;2023-04-04T02:13:23;99146.31;;;8.76;100.00
62712;BME280;48772;55.586;37.730;2023-04-04T02:15:50;99123.75;;;8.59;100.00
62712;BME280;48772;55.586;37.730;2023-04-04T02:18:17;99111.69;;;8.55;100.00
62712;BME280;48772;55.586;37.730;2023-04-04T02:20:43;99145.75;;;8.72;100.00
62712;BME280;48772;55.586;37.730;2023-04-04T02:23:09;99147.66;;;8.70;100.00
62712;BME280;48772;55.586;37.730;2023-04-04T02:25:35;99143.56;;;8.66;100.00
62712;BME280;48772;55.586;37.730;2023-04-04T02:28:01;99142.13;;;8.62;100.00
62712;BME280;48772;55.586;37.730;2023-04-04T02:30:26;99135.13;;;8.61;100.00
62712;BME280;48772;55.586;37.730;2023-04-04T02:32:52;99143.69;;;8.65;100.00
62712;BME280;48772;55.586;37.730;2023-04-04T02:35:19;99150.44;;;8.69;100.00
62712;BME280;48772;55.586;37.730;2023-04-04T02:37:45;99114.94;;;8.48;100.00
62712;BME280;48772;55.586;37.730;2023-04-04T02:40:21;99151.53;;;8.66;100.00
62712;BME280;48772;55.586;37.730;2023-04-04T02:42:47;99149.97;;;8.64;100.00
62712;BME280;48772;55.586;37.730;2023-04-04T02:45:13;99128.63;;;8.54;100.00
62712;BME280;48772;55.586;37.730;2023-04-04T02:47:49;99111.59;;;8.46;100.00
62712;BME280;48772;55.586;37.730;2023-04-04T02:50:16;99156.59;;;8.69;100.00
62712;BME280;48772;55.586;37.730;2023-04-04T02:52:43;99141.03;;;8.65;100.00
62712;BME280;48772;55.586;37.730;2023-04-04T02:55:12;99143.56;;;8.66;100.00
62712;BME280;48772;55.586;37.730;2023-04-04T02:57:40;99136.69;;;8.64;100.00
62712;BME280;48772;55.586;37.730;2023-04-04T03:00:06;99139.69;;;8.70;100.00
62712;BME280;48772;55.586;37.730;2023-04-04T03:02:32;99157.06;;;8.74;100.00
62712;BME280;48772;55.586;37.730;2023-04-04T03:04:58;99146.69;;;8.71;100.00
62712;BME280;48772;55.586;37.730;2023-04-04T03:07:24;99093.47;;;8.40;100.00
62712;BME280;48772;55.586;37.730;2023-04-04T03:09:52;99125.72;;;8.57;100.00
62712;BME280;48772;55.586;37.730;2023-04-04T03:12:20;99133.41;;;8.60;100.00
62712;BME280;48772;55.586;37.730;2023-04-04T03:14:47;99145.38;;;8.66;100.00
62712;BME280;48772;55.586;37.730;2023-04-04T03:17:13;99117.59;;;8.48;100.00
62712;BME280;48772;55.586;37.730;2023-04-04T03:19:42;99153.09;;;8.69;100.00
62712;BME280;48772;55.586;37.730;2023-04-04T03:22:08;99141.63;;;8.68;100.00
62712;BME280;48772;55.586;37.730;2023-04-04T03:24:34;99137.66;;;8.63;100.00
62712;BME280;48772;55.586;37.730;2023-04-04T03:27:00;99152.97;;;8.70;100.00
62712;BME280;48772;55.586;37.730;2023-04-04T03:29:26;99140.06;;;8.66;100.00
62712;BME280;48772;55.586;37.730;2023-04-04T03:31:52;99158.63;;;8.77;100.00
62712;BME280;48772;55.586;37.730;2023-04-04T03:34:18;99152.50;;;8.76;100.00
62712;BME280;48772;55.586;37.730;2023-04-04T03:36:46;99156.84;;;8.77;100.00
62712;BME280;48772;55.586;37.730;2023-04-04T03:39:12;99136.06;;;8.71;100.00
62712;BME280;48772;55.586;37.730;2023-04-04T03:41:38;99147.06;;;8.78;100.00
62712;BME280;48772;55.586;37.730;2023-04-04T03:44:05;99118.81;;;8.55;100.00
62712;BME280;48772;55.586;37.730;2023-04-04T03:46:31;99149.59;;;8.79;100.00
62712;BME280;48772;55.586;37.730;2023-04-04T03:48:58;99150.06;;;8.84;100.00
62712;BME280;48772;55.586;37.730;2023-04-04T03:51:24;99150.53;;;8.78;100.00
62712;BME280;48772;55.586;37.730;2023-04-04T03:53:52;99146.94;;;8.79;100.00
62712;BME280;48772;55.586;37.730;2023-04-04T03:56:18;99143.28;;;8.80;100.00
62712;BME280;48772;55.586;37.730;2023-04-04T03:58:44;99143.06;;;8.83;100.00
62712;BME280;48772;55.586;37.730;2023-04-04T04:01:15;99138.09;;;8.79;100.00
62712;BME280;48772;55.586;37.730;2023-04-04T04:03:41;99155.47;;;8.94;100.00
62712;BME280;48772;55.586;37.730;2023-04-04T04:06:07;99129.66;;;8.85;100.00
62712;BME280;48772;55.586;37.730;2023-04-04T04:08:33;99115.84;;;8.80;100.00
62712;BME280;48772;55.586;37.730;2023-04-04T04:11:03;99153.22;;;9.10;100.00
62712;BME280;48772;55.586;37.730;2023-04-04T04:13:32;99143.44;;;9.10;100.00
62712;BME280;48772;55.586;37.730;2023-04-04T04:16:00;99142.22;;;9.14;100.00
62712;BME280;48772;55.586;37.730;2023-04-04T04:18:26;99148.22;;;9.27;100.00
62712;BME280;48772;55.586;37.730;2023-04-04T04:20:57;99148.22;;;9.27;100.00
62712;BME280;48772;55.586;37.730;2023-04-04T04:23:24;99141.69;;;9.31;100.00
62712;BME280;48772;55.586;37.730;2023-04-04T04:25:51;99118.22;;;9.25;100.00
62712;BME280;48772;55.586;37.730;2023-04-04T04:28:19;99149.56;;;9.53;100.00
62712;BME280;48772;55.586;37.730;2023-04-04T04:30:46;99139.16;;;9.50;100.00
62712;BME280;48772;55.586;37.730;2023-04-04T04:33:14;99118.66;;;9.41;100.00
62712;BME280;48772;55.586;37.730;2023-04-04T04:35:51;99150.41;;;9.74;100.00
62712;BME280;48772;55.586;37.730;2023-04-04T04:38:19;99142.69;;;9.71;100.00
62712;BME280;48772;55.586;37.730;2023-04-04T04:40:45;99146.44;;;9.89;100.00
62712;BME280;48772;55.586;37.730;2023-04-04T04:43:17;99152.91;;;10.07;100.00
62712;BME280;48772;55.586;37.730;2023-04-04T04:45:44;99153.22;;;10.14;100.00
62712;BME280;48772;55.586;37.730;2023-04-04T04:48:10;99129.16;;;10.04;100.00
62712;BME280;48772;55.586;37.730;2023-04-04T04:50:46;99158.41;;;10.16;100.00
62712;BME280;48772;55.586;37.730;2023-04-04T04:53:15;99160.97;;;10.27;100.00
62712;BME280;48772;55.586;37.730;2023-04-04T04:55:44;99098.44;;;10.00;100.00
62712;BME280;48772;55.586;37.730;2023-04-04T04:58:11;99141.09;;;10.31;100.00
62712;BME280;48772;55.586;37.730;2023-04-04T05:00:41;99142.28;;;10.47;100.00
62712;BME280;48772;55.586;37.730;2023-04-04T05:03:07;99149.47;;;10.66;100.00
62712;BME280;48772;55.586;37.730;2023-04-04T05:05:38;99141.81;;;10.72;100.00
62712;BME280;48772;55.586;37.730;2023-04-04T05:08:08;99118.50;;;10.74;100.00
62712;BME280;48772;55.586;37.730;2023-04-04T05:10:38;99138.31;;;10.91;100.00
62712;BME280;48772;55.586;37.730;2023-04-04T05:13:06;99118.50;;;10.84;100.00
62712;BME280;48772;55.586;37.730;2023-04-04T05:15:39;99108.38;;;10.68;100.00
62712;BME280;48772;55.586;37.730;2023-04-04T05:18:05;99083.69;;;10.76;100.00
62712;BME280;48772;55.586;37.730;2023-04-04T05:20:31;99112.66;;;11.18;100.00
62712;BME280;48772;55.586;37.730;2023-04-04T05:23:00;99104.81;;;11.36;100.00
62712;BME280;48772;55.586;37.730;2023-04-04T05:25:32;99107.88;;;11.41;100.00
62712;BME280;48772;55.586;37.730;2023-04-04T05:27:58;99106.50;;;11.37;100.00
62712;BME280;48772;55.586;37.730;2023-04-04T05:30:25;99093.41;;;11.53;100.00
62712;BME280;48772;55.586;37.730;2023-04-04T05:33:01;99114.06;;;11.79;100.00
62712;BME280;48772;55.586;37.730;2023-04-04T05:35:29;99115.72;;;11.80;100.00
62712;BME280;48772;55.586;37.730;2023-04-04T05:37:56;99092.44;;;11.73;100.00
62712;BME280;48772;55.586;37.730;2023-04-04T05:40:23;99115.75;;;11.71;100.00
62712;BME280;48772;55.586;37.730;2023-04-04T05:42:58;99123.06;;;11.78;100.00
62712;BME280;48772;55.586;37.730;2023-04-04T05:45:31;99120.75;;;11.93;100.00
62712;BME280;48772;55.586;37.730;2023-04-04T05:47:58;99122.41;;;12.13;100.00
62712;BME280;48772;55.586;37.730;2023-04-04T05:50:27;99082.19;;;12.05;100.00
62712;BME280;48772;55.586;37.730;2023-04-04T05:52:59;99075.78;;;11.88;100.00
62712;BME280;48772;55.586;37.730;2023-04-04T05:55:25;99113.25;;;12.15;100.00
62712;BME280;48772;55.586;37.730;2023-04-04T05:57:52;99108.63;;;12.08;100.00
62712;BME280;48772;55.586;37.730;2023-04-04T06:00:26;99092.13;;;11.85;100.00
62712;BME280;48772;55.586;37.730;2023-04-04T06:03:02;99118.81;;;11.95;100.00
62712;BME280;48772;55.586;37.730;2023-04-04T06:05:28;99081.16;;;11.79;100.00
62712;BME280;48772;55.586;37.730;2023-04-04T06:07:54;99108.63;;;12.08;100.00
62712;BME280;48772;55.586;37.730;2023-04-04T06:10:20;99107.09;;;12.42;100.00
62712;BME280;48772;55.586;37.730;2023-04-04T06:12:46;99091.06;;;12.86;100.00
62712;BME280;48772;55.586;37.730;2023-04-04T06:15:12;99101.91;;;13.12;100.00
62712;BME280;48772;55.586;37.730;2023-04-04T06:17:40;99104.03;;;13.61;100.00
62712;BME280;48772;55.586;37.730;2023-04-04T06:20:07;99100.78;;;14.01;100.00
62712;BME280;48772;55.586;37.730;2023-04-04T06:22:34;99104.16;;;14.54;100.00
62712;BME280;48772;55.586;37.730;2023-04-04T06:25:02;99094.81;;;14.74;100.00
62712;BME280;48772;55.586;37.730;2023-04-04T06:27:31;99099.81;;;15.34;100.00
62712;BME280;48772;55.586;37.730;2023-04-04T06:30:01;99089.63;;;15.54;100.00
62712;BME280;48772;55.586;37.730;2023-04-04T06:32:30;99090.16;;;15.57;100.00
62712;BME280;48772;55.586;37.730;2023-04-04T06:34:57;99087.44;;;15.97;100.00
62712;BME280;48772;55.586;37.730;2023-04-04T06:37:40;99090.16;;;15.49;100.00
62712;BME280;48772;55.586;37.730;2023-04-04T06:40:14;99100.06;;;15.41;100.00
62712;BME280;48772;55.586;37.730;2023-04-04T06:42:49;99079.03;;;15.44;100.00
62712;BME280;48772;55.586;37.730;2023-04-04T06:45:20;99080.00;;;15.27;100.00
62712;BME280;48772;55.586;37.730;2023-04-04T06:47:47;99091.47;;;15.37;100.00
62712;BME280;48772;55.586;37.730;2023-04-04T06:50:16;99071.00;;;15.68;100.00
62712;BME280;48772;55.586;37.730;2023-04-04T06:52:47;99074.81;;;15.90;100.00
62712;BME280;48772;55.586;37.730;2023-04-04T06:55:16;99100.34;;;16.02;100.00
62712;BME280;48772;55.586;37.730;2023-04-04T06:57:43;99089.38;;;16.27;100.00
62712;BME280;48772;55.586;37.730;2023-04-04T07:00:09;99071.69;;;16.33;100.00
62712;BME280;48772;55.586;37.730;2023-04-04T07:02:35;99095.56;;;16.44;100.00
62712;BME280;48772;55.586;37.730;2023-04-04T07:05:02;99104.19;;;16.07;100.00
62712;BME280;48772;55.586;37.730;2023-04-04T07:07:29;99092.50;;;15.60;100.00
62712;BME280;48772;55.586;37.730;2023-04-04T07:09:55;99104.91;;;15.45;100.00
62712;BME280;48772;55.586;37.730;2023-04-04T07:12:21;99108.28;;;15.39;100.00
62712;BME280;48772;55.586;37.730;2023-04-04T07:14:47;99106.59;;;15.46;100.00
62712;BME280;48772;55.586;37.730;2023-04-04T07:17:13;99105.03;;;15.28;100.00
62712;BME280;48772;55.586;37.730;2023-04-04T07:19:39;99108.59;;;15.36;100.00
62712;BME280;48772;55.586;37.730;2023-04-04T07:22:05;99103.22;;;15.44;100.00
62712;BME280;48772;55.586;37.730;2023-04-04T07:24:31;99100.50;;;15.20;100.00
62712;BME280;48772;55.586;37.730;2023-04-04T07:26:57;99040.59;;;14.54;100.00
62712;BME280;48772;55.586;37.730;2023-04-04T07:29:23;99081.50;;;14.56;100.00
62712;BME280;48772;55.586;37.730;2023-04-04T07:31:48;99060.44;;;14.28;100.00
62712;BME280;48772;55.586;37.730;2023-04-04T07:34:15;99101.88;;;14.33;100.00
62712;BME280;48772;55.586;37.730;2023-04-04T07:36:41;99107.88;;;14.27;100.00
62712;BME280;48772;55.586;37.730;2023-04-04T07:39:08;99126.63;;;14.27;100.00
62712;BME280;48772;55.586;37.730;2023-04-04T07:41:33;99121.44;;;14.26;100.00
62712;BME280;48772;55.586;37.730;2023-04-04T07:44:00;99125.13;;;14.25;100.00
62712;BME280;48772;55.586;37.730;2023-04-04T07:46:31;99089.88;;;14.20;100.00
62712;BME280;48772;55.586;37.730;2023-04-04T07:48:58;99076.41;;;14.79;100.00
62712;BME280;48772;55.586;37.730;2023-04-04T07:51:26;99121.63;;;15.15;100.00
62712;BME280;48772;55.586;37.730;2023-04-04T07:53:56;99057.75;;;14.69;100.00
62712;BME280;48772;55.586;37.730;2023-04-04T07:56:22;99050.19;;;14.73;100.00
62712;BME280;48772;55.586;37.730;2023-04-04T07:58:48;99096.50;;;15.48;100.00
62712;BME280;48772;55.586;37.730;2023-04-04T08:01:14;99039.03;;;15.33;100.00
62712;BME280;48772;55.586;37.730;2023-04-04T08:03:41;99085.06;;;15.78;100.00
62712;BME280;48772;55.586;37.730;2023-04-04T08:06:07;99107.56;;;16.80;100.00
62712;BME280;48772;55.586;37.730;2023-04-04T08:08:33;99087.50;;;17.13;100.00
62712;BME280;48772;55.586;37.730;2023-04-04T08:11:26;99117.25;;;17.50;100.00
62712;BME280;48772;55.586;37.730;2023-04-04T08:13:51;99104.13;;;16.94;100.00
62712;BME280;48772;55.586;37.730;2023-04-04T08:16:17;99109.53;;;16.31;100.00
62712;BME280;48772;55.586;37.730;2023-04-04T08:18:44;99111.63;;;15.89;100.00
62712;BME280;48772;55.586;37.730;2023-04-04T08:21:11;99122.06;;;15.60;100.00
62712;BME280;48772;55.586;37.730;2023-04-04T08:23:37;99133.06;;;15.33;100.00
62712;BME280;48772;55.586;37.730;2023-04-04T08:26:03;99078.41;;;14.85;100.00
62712;BME280;48772;55.586;37.730;2023-04-04T08:28:29;99123.97;;;15.18;100.00
62712;BME280;48772;55.586;37.730;2023-04-04T08:30:55;99094.06;;;15.05;100.00
62712;BME280;48772;55.586;37.730;2023-04-04T08:33:21;99123.34;;;15.24;100.00
62712;BME280;48772;55.586;37.730;2023-04-04T08:35:49;99095.06;;;15.04;100.00
62712;BME280;48772;55.586;37.730;2023-04-04T08:38:15;99127.31;;;15.12;100.00
62712;BME280;48772;55.586;37.730;2023-04-04T08:40:45;99094.53;;;14.85;100.00
62712;BME280;48772;55.586;37.730;2023-04-04T08:43:13;99115.16;;;14.76;100.00
62712;BME280;48772;55.586;37.730;2023-04-04T08:45:41;99099.72;;;14.45;100.00
62712;BME280;48772;55.586;37.730;2023-04-04T08:48:10;99133.81;;;14.52;100.00
62712;BME280;48772;55.586;37.730;2023-04-04T08:50:58;99132.66;;;14.55;100.00
62712;BME280;48772;55.586;37.730;2023-04-04T08:53:25;99087.78;;;14.06;100.00
62712;BME280;48772;55.586;37.730;2023-04-04T08:55:53;99113.31;;;14.18;100.00
62712;BME280;48772;55.586;37.730;2023-04-04T08:58:19;99121.19;;;14.19;100.00
62712;BME280;48772;55.586;37.730;2023-04-04T09:00:45;99146.03;;;14.21;100.00
62712;BME280;48772;55.586;37.730;2023-04-04T09:03:20;99144.97;;;14.14;100.00
62712;BME280;48772;55.586;37.730;2023-04-04T09:05:48;99146.03;;;14.21;100.00
62712;BME280;48772;55.586;37.730;2023-04-04T09:08:17;99130.44;;;13.99;100.00
62712;BME280;48772;55.586;37.730;2023-04-04T09:10:44;99123.09;;;14.01;100.00
62712;BME280;48772;55.586;37.730;2023-04-04T09:13:10;99147.66;;;14.14;100.00
62712;BME280;48772;55.586;37.730;2023-04-04T09:15:37;99160.72;;;14.17;100.00
62712;BME280;48772;55.586;37.730;2023-04-04T09:18:05;99140.53;;;14.05;100.00
62712;BME280;48772;55.586;37.730;2023-04-04T09:20:45;99151.88;;;14.17;100.00
62712;BME280;48772;55.586;37.730;2023-04-04T09:23:13;99164.81;;;14.21;100.00
62712;BME280;48772;55.586;37.730;2023-04-04T09:28:17;99163.53;;;14.25;100.00
62712;BME280;48772;55.586;37.730;2023-04-04T09:30:43;99166.88;;;14.27;100.00
62712;BME280;48772;55.586;37.730;2023-04-04T09:33:14;99137.28;;;14.19;100.00
62712;BME280;48772;55.586;37.730;2023-04-04T09:35:46;99153.84;;;14.32;100.00
62712;BME280;48772;55.586;37.730;2023-04-04T09:38:14;99149.44;;;14.31;100.00
62712;BME280;48772;55.586;37.730;2023-04-04T09:40:41;99166.78;;;14.45;100.00
62712;BME280;48772;55.586;37.730;2023-04-04T09:43:07;99145.84;;;14.40;100.00
62712;BME280;48772;55.586;37.730;2023-04-04T09:45:36;99146.22;;;14.53;100.00
62712;BME280;48772;55.586;37.730;2023-04-04T09:48:05;99170.81;;;14.74;100.00
62712;BME280;48772;55.586;37.730;2023-04-04T09:50:32;99157.53;;;14.65;100.00
62712;BME280;48772;55.586;37.730;2023-04-04T09:52:59;99155.34;;;14.68;100.00
62712;BME280;48772;55.586;37.730;2023-04-04T09:55:34;99165.38;;;15.00;100.00
62712;BME280;48772;55.586;37.730;2023-04-04T09:58:14;99133.16;;;15.00;100.00
62712;BME280;48772;55.586;37.730;2023-04-04T10:00:41;99165.81;;;15.29;100.00
62712;BME280;48772;55.586;37.730;2023-04-04T10:03:13;99172.75;;;15.39;100.00
62712;BME280;48772;55.586;37.730;2023-04-04T10:05:39;99165.94;;;15.77;100.00
62712;BME280;48772;55.586;37.730;2023-04-04T10:08:20;99169.09;;;16.12;100.00
62712;BME280;48772;55.586;37.730;2023-04-04T10:10:50;99162.59;;;16.70;100.00
62712;BME280;48772;55.586;37.730;2023-04-04T10:13:27;99146.63;;;17.07;100.00
62712;BME280;48772;55.586;37.730;2023-04-04T10:15:55;99162.38;;;17.79;100.00
62712;BME280;48772;55.586;37.730;2023-04-04T10:18:29;99159.31;;;18.56;100.00
62712;BME280;48772;55.586;37.730;2023-04-04T10:21:00;99129.75;;;19.12;96.54
62712;BME280;48772;55.586;37.730;2023-04-04T10:23:29;99138.03;;;19.11;93.45
62712;BME280;48772;55.586;37.730;2023-04-04T10:25:56;99151.66;;;19.32;93.18
62712;BME280;48772;55.586;37.730;2023-04-04T10:28:23;99111.66;;;18.48;96.69
62712;BME280;48772;55.586;37.730;2023-04-04T10:36:53;99174.63;;;16.98;100.00
62712;BME280;48772;55.586;37.730;2023-04-04T10:41:54;99160.94;;;16.69;100.00
62712;BME280;48772;55.586;37.730;2023-04-04T10:44:37;99162.69;;;16.46;100.00
62712;BME280;48772;55.586;37.730;2023-04-04T10:47:19;99175.81;;;16.24;100.00
62712;BME280;48772;55.586;37.730;2023-04-04T10:49:51;99161.06;;;16.04;100.00
62712;BME280;48772;55.586;37.730;2023-04-04T10:52:26;99158.34;;;15.88;100.00
62712;BME280;48772;55.586;37.730;2023-04-04T10:55:12;99183.91;;;16.08;100.00
62712;BME280;48772;55.586;37.730;2023-04-04T10:57:46;99187.59;;;15.99;100.00
62712;BME280;48772;55.586;37.730;2023-04-04T11:00:16;99172.97;;;15.94;100.00
62712;BME280;48772;55.586;37.730;2023-04-04T11:03:00;99124.75;;;15.68;100.00
62712;BME280;48772;55.586;37.730;2023-04-04T11:05:31;99168.78;;;15.91;100.00
62712;BME280;48772;55.586;37.730;2023-04-04T11:08:02;99145.94;;;15.79;100.00
62712;BME280;48772;55.586;37.730;2023-04-04T11:10:30;99163.06;;;15.94;100.00
62712;BME280;48772;55.586;37.730;2023-04-04T11:12:57;99152.63;;;15.67;100.00
62712;BME280;48772;55.586;37.730;2023-04-04T11:16:04;99178.84;;;15.57;100.00
62712;BME280;48772;55.586;37.730;2023-04-04T11:21:06;99157.13;;;15.43;100.00
62712;BME280;48772;55.586;37.730;2023-04-04T11:28:59;99173.09;;;15.36;100.00
62712;BME280;48772;55.586;37.730;2023-04-04T11:31:27;99176.47;;;15.38;100.00
62712;BME280;48772;55.586;37.730;2023-04-04T11:34:13;99181.91;;;15.29;100.00
62712;BME280;48772;55.586;37.730;2023-04-04T11:44:16;99154.22;;;15.20;100.00
62712;BME280;48772;55.586;37.730;2023-04-04T11:46:43;99161.94;;;15.23;100.00
62712;BME280;48772;55.586;37.730;2023-04-04T11:49:29;99166.34;;;15.32;100.00
62712;BME280;48772;55.586;37.730;2023-04-04T11:51:56;99177.81;;;15.42;100.00
62712;BME280;48772;55.586;37.730;2023-04-04T11:54:22;99137.91;;;15.14;100.00
62712;BME280;48772;55.586;37.730;2023-04-04T11:56:48;99182.00;;;15.37;100.00
62712;BME280;48772;55.586;37.730;2023-04-04T11:59:19;99181.47;;;15.41;100.00
62712;BME280;48772;55.586;37.730;2023-04-04T12:04:30;99168.75;;;15.51;100.00
62712;BME280;48772;55.586;37.730;2023-04-04T12:07:16;99168.09;;;15.65;100.00
62712;BME280;48772;55.586;37.730;2023-04-04T12:09:42;99167.06;;;15.74;100.00
62712;BME280;48772;55.586;37.730;2023-04-04T12:12:27;99162.72;;;15.73;100.00
62712;BME280;48772;55.586;37.730;2023-04-04T12:15:14;99173.78;;;15.78;100.00
62712;BME280;48772;55.586;37.730;2023-04-04T12:17:40;99181.53;;;15.73;100.00
62712;BME280;48772;55.586;37.730;2023-04-04T12:20:14;99170.78;;;15.73;100.00
62712;BME280;48772;55.586;37.730;2023-04-04T12:22:40;99167.44;;;15.71;100.00
62712;BME280;48772;55.586;37.730;2023-04-04T12:25:06;99164.06;;;15.85;100.00
62712;BME280;48772;55.586;37.730;2023-04-04T12:27:33;99159.19;;;15.89;100.00
62712;BME280;48772;55.586;37.730;2023-04-04T12:29:59;99154.97;;;15.78;100.00
62712;BME280;48772;55.586;37.730;2023-04-04T12:32:26;99177.84;;;15.98;100.00
62712;BME280;48772;55.586;37.730;2023-04-04T12:34:52;99165.56;;;16.04;100.00
62712;BME280;48772;55.586;37.730;2023-04-04T12:37:21;99171.63;;;16.06;100.00
62712;BME280;48772;55.586;37.730;2023-04-04T12:39:47;99183.91;;;16.16;100.00
62712;BME280;48772;55.586;37.730;2023-04-04T12:42:23;99196.84;;;16.21;100.00
62712;BME280;48772;55.586;37.730;2023-04-04T12:44:50;99178.84;;;16.13;100.00
62712;BME280;48772;55.586;37.730;2023-04-04T12:47:36;99195.69;;;16.15;100.00
62712;BME280;48772;55.586;37.730;2023-04-04T12:50:24;99183.88;;;16.00;100.00
62712;BME280;48772;55.586;37.730;2023-04-04T12:52:52;99199.88;;;16.10;100.00
62712;BME280;48772;55.586;37.730;2023-04-04T12:55:22;99123.22;;;15.58;100.00
62712;BME280;48772;55.586;37.730;2023-04-04T12:57:48;99186.59;;;15.92;100.00
62712;BME280;48772;55.586;37.730;2023-04-04T13:00:15;99193.66;;;15.93;100.00
62712;BME280;48772;55.586;37.730;2023-04-04T13:02:45;99197.69;;;15.97;100.00
62712;BME280;48772;55.586;37.730;2023-04-04T13:05:14;99159.69;;;15.84;100.00
62712;BME280;48772;55.586;37.730;2023-04-04T13:08:06;99203.72;;;16.23;100.00
62712;BME280;48772;55.586;37.730;2023-04-04T13:10:58;99201.50;;;16.35;100.00
62712;BME280;48772;55.586;37.730;2023-04-04T13:13:32;99212.31;;;16.43;100.00
62712;BME280;48772;55.586;37.730;2023-04-04T13:15:58;99209.44;;;16.44;100.00
62712;BME280;48772;55.586;37.730;2023-04-04T13:18:25;99203.88;;;16.46;100.00
62712;BME280;48772;55.586;37.730;2023-04-04T13:20:52;99197.63;;;16.62;100.00
62712;BME280;48772;55.586;37.730;2023-04-04T13:23:19;99198.84;;;16.51;100.00
62712;BME280;48772;55.586;37.730;2023-04-04T13:25:45;99206.09;;;16.42;100.00